createdAt,value
2023-02-28T00:00:28.182Z,70.21
2023-02-28T00:02:56.162Z,69.60
2023-02-28T00:05:26.856Z,67.86
2023-02-28T00:07:54.673Z,69.43
2023-02-28T00:10:24.788Z,68.85
2023-02-28T00:12:55.171Z,62.98
2023-02-28T00:15:24.118Z,61.53
2023-02-28T00:17:51.946Z,60.00
2023-02-28T00:20:20.525Z,59.14
2023-02-28T00:22:53.922Z,59.14
2023-02-28T00:25:24.930Z,57.33
2023-02-28T00:27:53.174Z,58.50
2023-02-28T00:30:23.783Z,58.82
2023-02-28T00:32:52.359Z,57.08
2023-02-28T00:35:20.082Z,56.70
2023-02-28T00:37:50.351Z,58.36
2023-02-28T00:40:18.009Z,57.17
2023-02-28T00:42:45.682Z,57.48
2023-02-28T00:45:13.324Z,55.02
2023-02-28T00:47:40.934Z,55.49
2023-02-28T00:50:09.898Z,54.47
2023-02-28T00:52:37.974Z,55.33
2023-02-28T00:55:06.546Z,56.05
2023-02-28T00:57:34.621Z,54.82
2023-02-28T01:00:02.202Z,54.83
2023-02-28T01:02:31.695Z,56.63
2023-02-28T01:04:59.261Z,55.50
2023-02-28T01:07:26.799Z,55.77
2023-02-28T01:09:54.643Z,56.52
2023-02-28T01:12:22.131Z,55.24
2023-02-28T01:14:49.910Z,54.34
2023-02-28T01:17:18.326Z,56.12
2023-02-28T01:19:46.074Z,56.78
2023-02-28T01:22:13.574Z,56.98
2023-02-28T01:24:43.896Z,56.79
2023-02-28T01:27:13.809Z,57.04
2023-02-28T01:29:41.436Z,55.99
2023-02-28T01:32:10.643Z,54.67
2023-02-28T01:34:38.567Z,53.83
2023-02-28T01:37:06.120Z,54.27
2023-02-28T01:39:33.792Z,56.39
2023-02-28T01:42:01.330Z,55.25
2023-02-28T01:45:02.776Z,56.42
2023-02-28T01:47:40.004Z,55.08
2023-02-28T01:50:13.600Z,54.30
2023-02-28T01:52:42.341Z,55.32
2023-02-28T01:55:12.979Z,55.56
2023-02-28T01:57:48.321Z,56.43
2023-02-28T02:00:21.665Z,56.08
2023-02-28T02:02:52.521Z,57.72
2023-02-28T02:05:23.168Z,54.72
2023-02-28T02:07:56.560Z,56.94
2023-02-28T02:10:45.689Z,55.38
2023-02-28T02:13:25.559Z,55.26
2023-02-28T02:16:01.741Z,57.64
2023-02-28T02:18:39.246Z,58.59
2023-02-28T02:21:29.973Z,59.57
2023-02-28T02:24:06.752Z,58.43
2023-02-28T02:27:04.836Z,57.75
2023-02-28T02:29:56.525Z,58.54
2023-02-28T02:32:42.402Z,55.33
2023-02-28T02:35:30.469Z,56.11
2023-02-28T02:38:50.396Z,55.55
2023-02-28T02:41:26.196Z,55.45
2023-02-28T02:44:06.879Z,56.67
2023-02-28T02:46:42.097Z,56.93
2023-02-28T02:49:21.837Z,54.01
2023-02-28T02:51:51.082Z,54.95
2023-02-28T02:54:30.038Z,55.21
2023-02-28T02:57:13.245Z,55.64
2023-02-28T02:59:42.808Z,55.50
2023-02-28T03:02:16.199Z,56.84
2023-02-28T03:05:10.072Z,56.01
2023-02-28T03:07:38.080Z,56.24
2023-02-28T03:10:51.450Z,55.85
2023-02-28T03:13:55.357Z,55.56
2023-02-28T03:16:37.891Z,54.12
2023-02-28T03:19:18.528Z,56.63
2023-02-28T03:22:04.456Z,56.11
2023-02-28T03:24:52.302Z,54.97
2023-02-28T03:28:02.612Z,55.13
2023-02-28T03:31:00.926Z,56.25
2023-02-28T03:33:37.407Z,57.42
2023-02-28T03:36:30.434Z,56.13
2023-02-28T03:39:09.298Z,53.55
2023-02-28T03:41:55.138Z,54.44
2023-02-28T03:45:21.122Z,54.21
2023-02-28T03:47:54.936Z,54.98
2023-02-28T03:50:42.456Z,52.95
2023-02-28T03:53:18.659Z,55.67
2023-02-28T03:55:50.542Z,54.94
2023-02-28T03:58:31.822Z,56.04
2023-02-28T04:01:09.443Z,54.56
2023-02-28T04:03:38.414Z,54.84
2023-02-28T04:06:09.746Z,55.23
2023-02-28T04:08:37.348Z,54.88
2023-02-28T04:11:18.257Z,54.19
2023-02-28T04:13:47.527Z,55.70
2023-02-28T04:16:32.126Z,55.52
2023-02-28T04:19:07.062Z,55.33
2023-02-28T04:21:37.445Z,54.50
2023-02-28T04:24:05.502Z,54.20
2023-02-28T04:26:35.040Z,54.48
2023-02-28T04:29:04.361Z,55.24
2023-02-28T04:31:32.595Z,56.23
2023-02-28T04:34:01.203Z,63.37
2023-02-28T04:36:28.737Z,63.87
2023-02-28T04:38:56.796Z,64.71
2023-02-28T04:41:25.211Z,59.61
2023-02-28T04:43:54.198Z,62.59
2023-02-28T04:46:22.135Z,63.55
2023-02-28T04:48:49.829Z,61.63
2023-02-28T04:51:19.329Z,61.65
2023-02-28T04:53:47.244Z,57.38
2023-02-28T04:56:17.246Z,58.57
2023-02-28T04:58:45.610Z,57.09
2023-02-28T05:01:19.235Z,55.73
2023-02-28T05:03:46.753Z,56.12
2023-02-28T05:06:15.144Z,55.98
2023-02-28T05:08:42.713Z,54.67
2023-02-28T05:11:22.667Z,57.54
2023-02-28T05:13:50.655Z,56.58
2023-02-28T05:16:18.843Z,56.41
2023-02-28T05:18:46.981Z,56.57
2023-02-28T05:21:34.416Z,56.53
2023-02-28T05:24:05.191Z,57.21
2023-02-28T05:26:36.243Z,57.69
2023-02-28T05:29:04.062Z,56.19
2023-02-28T05:31:31.962Z,57.52
2023-02-28T05:34:00.006Z,56.58
2023-02-28T05:36:27.528Z,56.89
2023-02-28T05:38:55.233Z,55.56
2023-02-28T05:41:23.085Z,56.93
2023-02-28T05:43:50.749Z,57.67
2023-02-28T05:46:18.331Z,55.97
2023-02-28T05:48:49.107Z,56.34
2023-02-28T05:51:17.668Z,55.83
2023-02-28T05:53:45.547Z,55.33
2023-02-28T05:56:13.329Z,56.17
2023-02-28T05:58:40.796Z,57.54
2023-02-28T06:01:26.964Z,56.30
2023-02-28T06:03:54.830Z,57.14
2023-02-28T06:06:22.844Z,56.09
2023-02-28T06:08:50.969Z,57.12
2023-02-28T06:11:18.724Z,55.04
2023-02-28T06:13:46.208Z,54.71
2023-02-28T06:16:14.095Z,56.43
2023-02-28T06:18:41.649Z,56.12
2023-02-28T06:21:10.274Z,53.29
2023-02-28T06:23:37.914Z,56.09
2023-02-28T06:26:05.745Z,58.85
2023-02-28T06:28:33.540Z,56.33
2023-02-28T06:31:01.202Z,51.90
2023-02-28T06:33:28.746Z,53.41
2023-02-28T06:35:56.684Z,50.19
2023-02-28T06:38:24.478Z,50.32
2023-02-28T06:40:59.951Z,50.33
2023-02-28T06:43:30.067Z,47.53
2023-02-28T06:45:59.607Z,46.97
2023-02-28T06:48:28.671Z,44.53
2023-02-28T06:51:14.613Z,44.86
2023-02-28T06:53:42.673Z,42.49
2023-02-28T06:56:18.490Z,45.32
2023-02-28T06:58:50.745Z,43.08
2023-02-28T07:01:18.738Z,42.57
2023-02-28T07:03:47.082Z,42.91
2023-02-28T07:06:14.631Z,42.39
2023-02-28T07:08:42.482Z,43.44
2023-02-28T07:11:10.032Z,42.60
2023-02-28T07:13:38.276Z,41.43
2023-02-28T07:16:08.044Z,42.40
2023-02-28T07:18:36.670Z,42.43
2023-02-28T07:21:06.165Z,42.21
2023-02-28T07:23:33.817Z,42.12
2023-02-28T07:26:01.640Z,41.81
2023-02-28T07:28:29.459Z,43.31
2023-02-28T07:30:57.074Z,41.96
2023-02-28T07:33:25.295Z,42.69
2023-02-28T07:35:53.193Z,41.83
2023-02-28T07:38:20.669Z,43.52
2023-02-28T07:40:48.309Z,42.49
2023-02-28T07:43:15.803Z,42.86
2023-02-28T07:45:43.301Z,42.96
2023-02-28T07:48:11.443Z,42.56
2023-02-28T07:50:39.212Z,42.56
2023-02-28T07:53:06.944Z,43.31
2023-02-28T07:55:34.515Z,42.75
2023-02-28T07:58:02.095Z,43.21
2023-02-28T08:00:30.417Z,42.90
2023-02-28T08:02:58.042Z,41.99
2023-02-28T08:05:25.638Z,40.93
2023-02-28T08:07:54.648Z,41.57
2023-02-28T08:10:22.231Z,41.66
2023-02-28T08:12:49.736Z,43.17
2023-02-28T08:15:17.479Z,41.89
2023-02-28T08:17:44.992Z,41.77
2023-02-28T08:20:12.931Z,41.10
2023-02-28T08:22:40.485Z,40.84
2023-02-28T08:25:08.682Z,42.06
2023-02-28T08:27:36.713Z,41.55
2023-02-28T08:30:05.065Z,41.39
2023-02-28T08:32:34.965Z,42.37
2023-02-28T08:35:04.320Z,40.73
2023-02-28T08:37:32.163Z,40.43
2023-02-28T08:39:59.724Z,40.54
2023-02-28T08:42:27.416Z,39.86
2023-02-28T08:44:55.123Z,40.82
2023-02-28T08:47:22.557Z,39.78
2023-02-28T08:49:50.143Z,39.66
2023-02-28T08:52:17.763Z,39.69
2023-02-28T08:54:45.321Z,39.11
2023-02-28T08:57:12.959Z,40.34
2023-02-28T08:59:40.559Z,39.89
2023-02-28T09:02:09.744Z,40.16
2023-02-28T09:04:37.367Z,39.84
2023-02-28T09:07:05.049Z,39.69
2023-02-28T09:09:32.648Z,41.11
2023-02-28T09:12:00.677Z,40.78
2023-02-28T09:14:28.161Z,40.36
2023-02-28T09:16:56.252Z,41.89
2023-02-28T09:19:24.046Z,42.51
2023-02-28T09:21:51.556Z,41.42
2023-02-28T09:24:19.623Z,41.48
2023-02-28T09:26:56.789Z,41.31
2023-02-28T09:29:32.800Z,41.35
2023-02-28T09:32:00.694Z,41.49
2023-02-28T09:34:29.610Z,41.09
2023-02-28T09:36:57.673Z,40.50
2023-02-28T09:39:25.662Z,41.95
2023-02-28T09:41:55.108Z,41.63
2023-02-28T09:44:42.302Z,41.83
2023-02-28T09:47:35.911Z,43.16
2023-02-28T09:50:43.875Z,43.59
2023-02-28T09:53:45.789Z,43.46
2023-02-28T09:56:27.864Z,42.77
2023-02-28T09:59:07.074Z,42.70
2023-02-28T10:01:53.480Z,43.52
2023-02-28T10:04:45.376Z,42.94
2023-02-28T10:07:23.427Z,43.04
2023-02-28T10:09:56.721Z,41.77
2023-02-28T10:12:26.237Z,41.94
2023-02-28T10:14:56.436Z,42.64
2023-02-28T10:17:49.433Z,42.81
2023-02-28T10:20:31.183Z,42.51
2023-02-28T10:23:20.279Z,43.39
2023-02-28T10:25:59.996Z,43.13
2023-02-28T10:28:34.304Z,42.36
2023-02-28T10:31:02.575Z,41.93
2023-02-28T10:33:36.941Z,44.15
2023-02-28T10:36:08.041Z,43.03
2023-02-28T10:38:38.593Z,42.66
2023-02-28T10:41:08.998Z,41.79
2023-02-28T10:43:37.387Z,42.01
2023-02-28T10:46:11.060Z,43.05
2023-02-28T10:49:04.655Z,44.06
2023-02-28T10:51:40.748Z,43.45
2023-02-28T10:54:18.050Z,43.05
2023-02-28T10:56:45.641Z,42.11
2023-02-28T10:59:16.338Z,42.50
2023-02-28T11:01:50.247Z,41.62
2023-02-28T11:04:27.365Z,41.69
2023-02-28T11:06:59.251Z,42.36
2023-02-28T11:09:32.525Z,42.48
2023-02-28T11:12:00.578Z,42.51
2023-02-28T11:14:37.164Z,42.44
2023-02-28T11:17:20.208Z,42.38
2023-02-28T11:19:51.248Z,42.11
2023-02-28T11:22:27.416Z,42.36
2023-02-28T11:24:57.969Z,42.16
2023-02-28T11:27:31.577Z,43.58
2023-02-28T11:30:00.297Z,42.24
2023-02-28T11:32:31.769Z,41.96
2023-02-28T11:35:06.150Z,42.55
2023-02-28T11:37:34.586Z,41.31
2023-02-28T11:40:02.568Z,41.97
2023-02-28T11:42:57.094Z,41.42
2023-02-28T11:45:55.304Z,42.35
2023-02-28T11:48:25.069Z,41.55
2023-02-28T11:51:17.169Z,42.99
2023-02-28T11:53:51.534Z,42.14
2023-02-28T11:56:22.182Z,42.12
2023-02-28T11:58:49.822Z,41.32
2023-02-28T12:01:23.324Z,42.34
2023-02-28T12:04:18.143Z,42.82
2023-02-28T12:06:48.495Z,40.95
2023-02-28T12:09:22.199Z,42.74
2023-02-28T12:11:54.729Z,42.86
2023-02-28T12:14:59.841Z,42.59
2023-02-28T12:17:33.982Z,41.55
2023-02-28T12:20:26.134Z,41.82
2023-02-28T12:23:31.060Z,42.66
2023-02-28T12:26:36.326Z,43.32
2023-02-28T12:29:31.412Z,43.29
2023-02-28T12:32:19.956Z,42.82
2023-02-28T12:35:00.443Z,43.11
2023-02-28T12:37:49.706Z,42.56
2023-02-28T12:40:27.519Z,43.64
2023-02-28T12:43:08.888Z,42.94
2023-02-28T12:45:51.895Z,43.19
2023-02-28T12:48:33.144Z,43.98
2023-02-28T12:51:03.377Z,43.27
2023-02-28T12:53:49.784Z,43.67
2023-02-28T12:56:45.654Z,43.26
2023-02-28T12:59:16.779Z,43.31
2023-02-28T13:01:53.487Z,43.03
2023-02-28T13:04:39.895Z,44.48
2023-02-28T13:07:40.970Z,43.95
2023-02-28T13:10:09.183Z,43.64
2023-02-28T13:12:37.673Z,42.37
2023-02-28T13:15:22.649Z,43.93
2023-02-28T13:17:54.801Z,42.92
2023-02-28T13:20:26.640Z,43.33
2023-02-28T13:22:56.349Z,42.89
2023-02-28T13:25:23.978Z,42.49
2023-02-28T13:28:02.132Z,43.19
2023-02-28T13:30:57.092Z,43.47
2023-02-28T13:33:34.945Z,43.31
2023-02-28T13:36:12.832Z,42.84
2023-02-28T13:38:46.574Z,42.92
2023-02-28T13:41:32.934Z,42.83
2023-02-28T13:44:24.569Z,43.79
2023-02-28T13:46:52.769Z,43.10
2023-02-28T13:49:38.277Z,42.82
2023-02-28T13:52:09.959Z,43.39
2023-02-28T13:55:00.342Z,43.57
2023-02-28T13:57:43.280Z,43.45
2023-02-28T14:00:37.765Z,43.83
2023-02-28T14:03:41.591Z,44.47
2023-02-28T14:06:27.511Z,43.49
2023-02-28T14:09:18.221Z,44.00
2023-02-28T14:11:47.804Z,42.97
2023-02-28T14:14:37.317Z,44.11
2023-02-28T14:17:08.034Z,44.59
2023-02-28T14:19:38.544Z,45.19
2023-02-28T14:22:38.844Z,45.02
2023-02-28T14:25:18.562Z,44.50
2023-02-28T14:27:58.392Z,43.75
2023-02-28T14:31:03.102Z,44.07
2023-02-28T14:33:31.972Z,44.51
2023-02-28T14:36:26.558Z,43.92
2023-02-28T14:38:58.673Z,44.79
2023-02-28T14:41:33.077Z,46.00
2023-02-28T14:44:02.397Z,44.64
2023-02-28T14:46:42.267Z,44.25
2023-02-28T14:49:29.801Z,44.01
2023-02-28T14:52:24.002Z,44.24
2023-02-28T14:55:03.039Z,43.84
2023-02-28T14:57:43.226Z,43.94
2023-02-28T15:00:32.963Z,43.69
2023-02-28T15:03:02.579Z,43.76
2023-02-28T15:05:36.544Z,43.77
2023-02-28T15:08:06.871Z,43.71
2023-02-28T15:10:35.340Z,43.32
2023-02-28T15:13:16.272Z,44.01
2023-02-28T15:16:06.254Z,44.71
2023-02-28T15:18:39.841Z,44.16
2023-02-28T15:21:26.913Z,44.36
2023-02-28T15:23:54.518Z,44.08
2023-02-28T15:26:25.530Z,44.63
2023-02-28T15:29:00.663Z,44.64
2023-02-28T15:31:41.191Z,44.15
2023-02-28T15:34:36.989Z,44.32
2023-02-28T15:37:34.690Z,43.96
2023-02-28T15:40:19.540Z,43.90
2023-02-28T15:43:17.627Z,43.72
2023-02-28T15:45:50.837Z,43.70
2023-02-28T15:48:22.981Z,44.12
2023-02-28T15:50:55.223Z,43.53
2023-02-28T15:53:29.938Z,43.83
2023-02-28T15:56:09.148Z,44.28
2023-02-28T15:58:38.251Z,43.92
2023-02-28T16:01:07.852Z,43.84
2023-02-28T16:03:51.141Z,44.01
2023-02-28T16:06:18.744Z,43.99
2023-02-28T16:08:50.800Z,44.38
2023-02-28T16:11:20.351Z,44.60
2023-02-28T16:13:48.251Z,44.77
2023-02-28T16:16:20.702Z,44.04
2023-02-28T16:18:48.995Z,43.92
2023-02-28T16:21:16.928Z,43.82
2023-02-28T16:23:47.487Z,43.51
2023-02-28T16:26:25.325Z,43.71
2023-02-28T16:28:53.534Z,44.07
2023-02-28T16:31:21.726Z,43.71
2023-02-28T16:33:49.494Z,44.08
2023-02-28T16:36:20.001Z,45.01
2023-02-28T16:38:49.801Z,45.10
2023-02-28T16:41:21.853Z,44.77
2023-02-28T16:43:52.938Z,44.31
2023-02-28T16:46:22.291Z,44.63
2023-02-28T16:48:52.789Z,44.40
2023-02-28T16:51:20.454Z,44.62
2023-02-28T16:53:48.343Z,44.85
2023-02-28T16:56:23.325Z,44.84
2023-02-28T16:58:52.605Z,44.39
2023-02-28T17:01:23.394Z,44.72
2023-02-28T17:03:51.764Z,44.72
2023-02-28T17:06:24.635Z,45.16
2023-02-28T17:08:53.104Z,44.42
2023-02-28T17:11:22.287Z,44.41
2023-02-28T17:13:50.490Z,44.20
2023-02-28T17:16:30.789Z,45.23
2023-02-28T17:19:01.598Z,44.83
2023-02-28T17:21:30.197Z,44.63
2023-02-28T17:23:58.222Z,44.26
2023-02-28T17:26:26.229Z,44.77
2023-02-28T17:28:57.074Z,45.34
2023-02-28T17:31:28.782Z,44.49
2023-02-28T17:33:56.567Z,45.63
2023-02-28T17:36:27.920Z,44.71
2023-02-28T17:38:59.789Z,44.66
2023-02-28T17:41:31.700Z,45.54
2023-02-28T17:43:59.520Z,44.98
2023-02-28T17:46:28.134Z,45.01
2023-02-28T17:48:56.207Z,45.82
2023-02-28T17:51:25.913Z,45.99
2023-02-28T17:53:53.956Z,45.32
2023-02-28T17:56:26.892Z,47.36
2023-02-28T17:58:56.380Z,45.71
2023-02-28T18:01:28.071Z,46.59
2023-02-28T18:03:57.053Z,46.25
2023-02-28T18:06:37.155Z,46.56
2023-02-28T18:09:04.729Z,45.12
2023-02-28T18:11:42.745Z,45.26
2023-02-28T18:14:10.525Z,45.40
2023-02-28T18:16:39.338Z,45.82
2023-02-28T18:19:07.474Z,45.68
2023-02-28T18:21:35.080Z,46.48
2023-02-28T18:24:02.650Z,46.28
2023-02-28T18:26:30.623Z,45.67
2023-02-28T18:28:58.692Z,45.69
2023-02-28T18:31:26.276Z,45.48
2023-02-28T18:33:54.347Z,45.24
2023-02-28T18:36:22.395Z,45.29
2023-02-28T18:38:53.586Z,44.94
2023-02-28T18:41:22.273Z,45.01
2023-02-28T18:43:52.163Z,45.02
2023-02-28T18:46:23.870Z,45.64
2023-02-28T18:48:51.475Z,44.91
2023-02-28T18:51:21.830Z,45.23
2023-02-28T18:53:50.828Z,44.42
2023-02-28T18:56:20.385Z,45.37
2023-02-28T18:58:48.116Z,45.09
2023-02-28T19:01:17.591Z,45.59
2023-02-28T19:03:45.961Z,45.25
2023-02-28T19:06:14.520Z,44.49
2023-02-28T19:08:42.197Z,44.50
2023-02-28T19:11:15.017Z,44.55
2023-02-28T19:13:44.772Z,45.01
2023-02-28T19:16:14.942Z,44.80
2023-02-28T19:18:42.916Z,45.01
2023-02-28T19:21:13.322Z,44.65
2023-02-28T19:23:42.576Z,44.54
2023-02-28T19:26:13.162Z,44.27
2023-02-28T19:28:41.372Z,44.84
2023-02-28T19:31:20.131Z,45.46
2023-02-28T19:33:48.418Z,44.74
2023-02-28T19:36:16.939Z,44.65
2023-02-28T19:38:45.464Z,44.48
2023-02-28T19:41:15.371Z,44.45
2023-02-28T19:43:43.067Z,44.09
2023-02-28T19:46:12.329Z,44.48
2023-02-28T19:48:40.637Z,44.09
2023-02-28T19:51:11.190Z,44.65
2023-02-28T19:53:41.285Z,44.90
2023-02-28T19:56:09.977Z,44.70
2023-02-28T19:58:38.242Z,44.82
2023-02-28T20:01:16.211Z,45.44
2023-02-28T20:03:47.322Z,44.97
2023-02-28T20:06:15.412Z,45.33
2023-02-28T20:08:43.141Z,45.01
2023-02-28T20:11:13.341Z,44.95
2023-02-28T20:13:41.717Z,45.07
2023-02-28T20:16:11.306Z,45.28
2023-02-28T20:18:40.664Z,45.57
2023-02-28T20:21:09.515Z,45.81
2023-02-28T20:23:40.856Z,45.91
2023-02-28T20:26:08.549Z,45.42
2023-02-28T20:28:36.721Z,45.37
2023-02-28T20:31:10.689Z,45.79
2023-02-28T20:33:38.274Z,46.52
2023-02-28T20:36:06.263Z,46.24
2023-02-28T20:38:33.906Z,46.08
2023-02-28T20:41:02.738Z,46.40
2023-02-28T20:43:30.460Z,47.27
2023-02-28T20:46:02.082Z,47.71
2023-02-28T20:48:31.175Z,46.83
2023-02-28T20:51:00.123Z,46.01
2023-02-28T20:53:28.595Z,45.48
2023-02-28T20:56:05.014Z,46.51
2023-02-28T20:58:35.971Z,47.05
2023-02-28T21:01:16.347Z,47.41
2023-02-28T21:03:52.734Z,46.83
2023-02-28T21:06:22.472Z,46.29
2023-02-28T21:08:50.618Z,46.23
2023-02-28T21:11:27.171Z,46.99
2023-02-28T21:13:55.801Z,45.91
2023-02-28T21:16:24.806Z,46.14
2023-02-28T21:18:55.462Z,46.12
2023-02-28T21:21:25.254Z,46.50
2023-02-28T21:23:53.147Z,46.46
2023-02-28T21:26:23.408Z,46.41
2023-02-28T21:28:52.619Z,46.10
2023-02-28T21:31:22.068Z,45.85
2023-02-28T21:33:50.165Z,46.19
2023-02-28T21:36:20.722Z,46.79
2023-02-28T21:38:51.344Z,46.43
2023-02-28T21:41:21.402Z,46.08
2023-02-28T21:43:49.619Z,46.55
2023-02-28T21:46:22.515Z,46.93
2023-02-28T21:48:51.297Z,46.77
2023-02-28T21:51:24.511Z,47.45
2023-02-28T21:53:52.184Z,47.22
2023-02-28T21:56:22.713Z,47.63
2023-02-28T21:58:50.647Z,47.13
2023-02-28T22:01:20.765Z,47.43
2023-02-28T22:03:50.109Z,47.63
2023-02-28T22:06:20.821Z,47.30
2023-02-28T22:08:52.459Z,46.80
2023-02-28T22:11:21.279Z,46.64
2023-02-28T22:13:51.893Z,47.10
2023-02-28T22:16:21.195Z,47.35
2023-02-28T22:18:49.032Z,47.57
2023-02-28T22:21:18.222Z,47.67
2023-02-28T22:23:46.951Z,47.11
2023-02-28T22:26:18.535Z,47.76
2023-02-28T22:28:46.298Z,47.06
2023-02-28T22:31:32.234Z,47.01
2023-02-28T22:34:02.282Z,47.27
2023-02-28T22:36:30.747Z,47.53
2023-02-28T22:39:01.047Z,47.32
2023-02-28T22:41:29.566Z,47.58
2023-02-28T22:43:59.421Z,48.05
2023-02-28T22:46:31.681Z,48.40
2023-02-28T22:49:00.943Z,47.76
2023-02-28T22:51:29.572Z,47.49
2023-02-28T22:53:58.789Z,47.53
2023-02-28T22:56:29.280Z,47.03
2023-02-28T22:58:58.848Z,47.18
2023-02-28T23:01:29.748Z,48.33
2023-02-28T23:03:58.072Z,47.57
2023-02-28T23:06:28.413Z,47.38
2023-02-28T23:08:59.066Z,47.57
2023-02-28T23:11:33.254Z,48.33
2023-02-28T23:14:01.520Z,47.79
2023-02-28T23:16:41.161Z,47.39
2023-02-28T23:19:12.570Z,48.16
2023-02-28T23:21:40.737Z,47.28
2023-02-28T23:24:12.797Z,47.40
2023-02-28T23:26:45.958Z,48.25
2023-02-28T23:29:15.825Z,47.54
2023-02-28T23:31:44.014Z,46.76
2023-02-28T23:34:11.985Z,46.69
2023-02-28T23:36:46.390Z,47.73
2023-02-28T23:39:17.324Z,47.54
2023-02-28T23:41:45.539Z,47.48
2023-02-28T23:44:17.256Z,47.50
2023-02-28T23:46:47.306Z,47.45
2023-02-28T23:49:16.017Z,47.62
2023-02-28T23:51:43.648Z,47.63
2023-02-28T23:54:11.208Z,47.65
2023-02-28T23:56:38.826Z,47.88
2023-02-28T23:59:06.705Z,47.46
